Terminal Aerodrome Forecast
Issued by NWS

Home | Current Version | Previous Version | Text Only | Print | Product List | Glossary On
Versions: 1 2 3 4 5 6 7 8 9 10 11 12 13 14 15 16 17
000
FTUS45 KBOI 251722
TAFMYL
TAF
KMYL 251722Z 2518/2618 VRB04KT P6SM SCT050
     FM252200 22005KT P6SM VCSH BKN050
     FM260500 VRB03KT P6SM VCFG SCT200
     FM261500 17007KT P6SM SCT040 BKN060=

USA.gov is the U.S. government's official web portal to all federal, state and local government web resources and services.